Time;durP1;ratioP1;P1;durP2;ratioP2;P2;SDS_P1;SDS_P2;PMS_P1;PMS_P2;Temp;Humidity;BMP_temperature;BMP_pressure;BME280_temperature;BME280_humidity;BME280_pressure;Samples;Min_cycle;Max_cycle;Signal;HPM_P1;HPM_P2
2021/12/31 00:00:11;;;;;;;27.47;6.37;;;11.40;99.90;;;;;;5048670;28;20572;-82
2021/12/31 00:02:39;;;;;;;28.67;6.17;;;11.40;99.90;;;;;;5050246;28;20204;-84
2021/12/31 00:05:06;;;;;;;31.90;6.60;;;11.40;99.90;;;;;;5051933;28;20194;-83
2021/12/31 00:07:34;;;;;;;33.23;6.50;;;11.50;99.90;;;;;;5040988;28;20211;-85
2021/12/31 00:10:01;;;;;;;29.63;6.23;;;11.60;99.90;;;;;;5033761;28;20206;-86
2021/12/31 00:12:30;;;;;;;23.60;5.57;;;11.70;99.90;;;;;;5032739;28;20250;-86
2021/12/31 00:14:58;;;;;;;21.40;5.10;;;11.90;99.90;;;;;;5033451;28;20746;-85
2021/12/31 00:17:25;;;;;;;27.03;6.07;;;12.00;99.90;;;;;;5033375;28;20209;-85
2021/12/31 00:20:00;;;;;;;26.33;5.53;;;12.00;99.90;;;;;;5033608;28;20218;-83
2021/12/31 00:25:12;;;;;;;25.33;5.10;;;12.10;99.90;;;;;;5032604;28;20194;-85
2021/12/31 00:27:41;;;;;;;23.30;7.10;;;12.20;99.90;;;;;;5034422;28;20756;-84
2021/12/31 00:30:09;;;;;;;18.63;5.47;;;12.20;99.90;;;;;;5051535;28;20292;-82
2021/12/31 00:32:35;;;;;;;29.27;6.20;;;12.20;99.90;;;;;;5052939;28;20240;-84
2021/12/31 00:35:03;;;;;;;29.03;5.83;;;12.20;99.90;;;;;;5052629;28;20224;-83
2021/12/31 00:37:31;;;;;;;36.27;7.23;;;12.10;99.90;;;;;;5047029;28;20210;-85
2021/12/31 00:40:00;;;;;;;26.47;6.80;;;12.10;99.90;;;;;;5032676;28;20595;-83
2021/12/31 00:42:27;;;;;;;21.37;5.40;;;12.10;99.90;;;;;;5031046;28;20206;-85
2021/12/31 00:44:55;;;;;;;26.30;5.53;;;12.10;99.90;;;;;;5035910;28;20217;-83
2021/12/31 00:47:22;;;;;;;24.27;5.67;;;12.00;99.90;;;;;;5043674;28;20245;-82
2021/12/31 00:49:49;;;;;;;23.67;5.27;;;12.00;99.90;;;;;;5031769;28;20203;-84
2021/12/31 00:52:16;;;;;;;23.93;5.90;;;12.00;99.90;;;;;;5031844;28;20819;-83
2021/12/31 00:54:43;;;;;;;32.07;7.33;;;12.00;99.90;;;;;;5031116;28;20610;-82
2021/12/31 00:57:11;;;;;;;19.50;4.90;;;12.00;99.90;;;;;;5031128;28;20225;-82
2021/12/31 00:59:38;;;;;;;18.33;4.63;;;11.90;99.90;;;;;;5031211;28;20225;-84
2021/12/31 01:02:07;;;;;;;23.07;6.30;;;11.90;99.90;;;;;;5031857;28;20598;-82
2021/12/31 01:04:34;;;;;;;23.83;5.67;;;12.00;99.90;;;;;;5030831;28;20697;-81
2021/12/31 01:07:02;;;;;;;23.87;5.77;;;11.90;99.90;;;;;;5032581;28;20214;-84
2021/12/31 01:09:30;;;;;;;20.77;5.70;;;11.90;99.90;;;;;;5051535;28;20214;-85
2021/12/31 01:11:57;;;;;;;17.43;5.93;;;11.80;99.90;;;;;;5051366;28;20230;-86
2021/12/31 01:14:30;;;;;;;22.93;6.20;;;11.90;99.90;;;;;;5037240;28;20558;-82
2021/12/31 01:17:00;;;;;;;21.10;5.63;;;11.80;99.90;;;;;;5034311;28;20628;-82
2021/12/31 01:19:45;;;;;;;24.70;6.77;;;11.80;99.90;;;;;;5051686;28;20541;-82
2021/12/31 01:22:13;;;;;;;19.47;5.53;;;11.80;99.90;;;;;;5051369;28;20205;-83
2021/12/31 01:24:40;;;;;;;26.80;6.10;;;11.80;99.90;;;;;;5037038;28;20223;-84
2021/12/31 01:27:07;;;;;;;18.63;6.13;;;11.80;99.90;;;;;;5030566;28;20194;-82
2021/12/31 01:29:33;;;;;;;29.13;5.87;;;11.90;99.90;;;;;;5031212;28;20526;-83
2021/12/31 01:32:00;;;;;;;23.30;5.90;;;11.90;99.90;;;;;;5030166;28;20226;-82
2021/12/31 01:34:28;;;;;;;21.97;6.07;;;12.00;99.90;;;;;;5047454;28;20206;-83
2021/12/31 01:36:55;;;;;;;19.07;5.40;;;11.90;99.90;;;;;;5050469;28;20577;-84
2021/12/31 01:39:22;;;;;;;22.27;5.73;;;11.90;99.90;;;;;;5050436;28;20196;-83
2021/12/31 01:41:49;;;;;;;16.43;5.50;;;12.00;99.90;;;;;;5045047;28;20207;-82
2021/12/31 01:44:15;;;;;;;22.70;5.77;;;12.00;99.90;;;;;;5031251;28;20210;-81
2021/12/31 01:46:57;;;;;;;19.30;5.80;;;12.00;99.90;;;;;;5030179;28;20261;-83
2021/12/31 01:49:32;;;;;;;19.80;7.33;;;12.00;99.90;;;;;;5029877;28;20218;-83
2021/12/31 01:52:01;;;;;;;20.17;4.87;;;12.00;99.90;;;;;;5030303;28;20565;-82
2021/12/31 01:54:29;;;;;;;18.63;5.27;;;12.00;99.90;;;;;;5026499;28;20325;-84
2021/12/31 01:56:58;;;;;;;20.77;5.53;;;12.00;99.90;;;;;;5029851;28;20203;-82
2021/12/31 01:59:25;;;;;;;20.17;4.23;;;12.00;99.90;;;;;;5029370;28;20206;-82
2021/12/31 02:01:52;;;;;;;18.67;4.93;;;12.00;99.90;;;;;;5029637;28;20210;-83
2021/12/31 02:04:19;;;;;;;15.63;4.40;;;12.00;99.90;;;;;;5030143;28;20212;-82
2021/12/31 02:06:46;;;;;;;17.40;4.73;;;11.90;99.90;;;;;;5029506;28;20213;-83
2021/12/31 02:09:14;;;;;;;18.63;5.90;;;12.00;99.90;;;;;;5030887;28;20281;-84
2021/12/31 02:11:42;;;;;;;17.27;5.43;;;12.00;99.90;;;;;;5029740;28;20195;-83
2021/12/31 02:14:09;;;;;;;12.43;4.30;;;12.10;99.90;;;;;;5029361;28;20518;-84
2021/12/31 02:16:36;;;;;;;13.53;4.33;;;12.00;99.90;;;;;;5029493;28;20203;-83
2021/12/31 02:19:11;;;;;;;16.13;4.50;;;12.00;99.90;;;;;;5030493;28;20945;-83
2021/12/31 02:21:43;;;;;;;23.23;5.83;;;12.10;99.90;;;;;;5028578;28;20317;-82
2021/12/31 02:24:10;;;;;;;19.27;5.13;;;12.10;99.90;;;;;;5029905;28;20278;-84
2021/12/31 02:26:36;;;;;;;22.00;6.70;;;12.10;99.90;;;;;;5029359;28;20733;-83
2021/12/31 02:29:03;;;;;;;16.97;4.50;;;12.10;99.90;;;;;;5029654;28;20226;-83
2021/12/31 02:31:31;;;;;;;20.23;4.73;;;12.10;99.90;;;;;;5029139;28;20241;-84
2021/12/31 02:33:58;;;;;;;17.37;5.17;;;12.00;99.90;;;;;;5030060;28;20230;-82
2021/12/31 02:36:25;;;;;;;17.93;5.17;;;12.00;99.90;;;;;;5029603;28;20199;-83
2021/12/31 02:38:53;;;;;;;15.73;5.27;;;12.10;99.90;;;;;;5030088;28;20210;-84
2021/12/31 02:41:20;;;;;;;22.37;5.73;;;12.10;99.90;;;;;;5030217;28;20206;-81
2021/12/31 02:43:47;;;;;;;19.73;5.13;;;12.10;99.90;;;;;;5029698;28;20222;-81
2021/12/31 02:46:14;;;;;;;22.37;5.37;;;12.10;99.90;;;;;;5044705;28;20242;-81
2021/12/31 02:48:41;;;;;;;20.23;5.63;;;12.00;99.90;;;;;;5033756;28;20207;-82
2021/12/31 02:51:08;;;;;;;20.60;4.70;;;12.00;99.90;;;;;;5047567;28;20329;-82
2021/12/31 02:53:38;;;;;;;22.10;4.43;;;12.00;99.90;;;;;;5038758;28;20229;-84
2021/12/31 02:56:08;;;;;;;20.97;5.53;;;12.00;99.90;;;;;;5035339;28;20206;-83
2021/12/31 02:58:37;;;;;;;15.13;4.93;;;12.00;99.90;;;;;;5032909;28;20195;-83
2021/12/31 03:01:05;;;;;;;18.90;4.90;;;12.00;99.90;;;;;;5029823;28;20210;-83
2021/12/31 03:03:35;;;;;;;14.80;4.40;;;12.00;99.90;;;;;;5027492;28;20870;-85
2021/12/31 03:06:03;;;;;;;15.50;3.90;;;12.00;99.90;;;;;;5028933;28;20210;-85
2021/12/31 03:08:33;;;;;;;11.23;3.93;;;12.00;99.90;;;;;;5032495;28;20202;-82
2021/12/31 03:11:03;;;;;;;14.90;4.77;;;12.10;99.90;;;;;;5049091;28;20206;-82
2021/12/31 03:13:32;;;;;;;18.13;4.23;;;12.10;99.90;;;;;;5048461;28;20240;-84
2021/12/31 03:16:00;;;;;;;9.87;4.03;;;12.10;99.90;;;;;;5034541;28;20222;-83
2021/12/31 03:18:27;;;;;;;20.23;5.20;;;12.10;99.90;;;;;;5027714;28;20207;-82
2021/12/31 03:21:02;;;;;;;17.13;4.27;;;12.10;99.90;;;;;;5029262;28;20215;-84
2021/12/31 03:23:30;;;;;;;12.80;3.70;;;12.10;99.90;;;;;;5029067;28;20202;-84
2021/12/31 03:25:57;;;;;;;16.90;4.10;;;12.10;99.90;;;;;;5026425;28;20222;-83
2021/12/31 03:28:25;;;;;;;14.47;4.43;;;12.10;99.90;;;;;;5028225;28;20219;-84
2021/12/31 03:30:53;;;;;;;15.80;3.90;;;12.10;99.90;;;;;;5029155;28;20213;-85
2021/12/31 03:33:21;;;;;;;15.70;4.60;;;12.10;99.90;;;;;;5028103;28;20230;-83
2021/12/31 03:35:48;;;;;;;10.87;3.50;;;12.10;99.90;;;;;;5027910;28;20198;-83
2021/12/31 03:38:14;;;;;;;13.00;3.50;;;12.20;99.90;;;;;;5030551;28;20214;-82
2021/12/31 03:40:42;;;;;;;13.37;3.57;;;12.10;99.90;;;;;;5031412;28;20214;-82
2021/12/31 03:43:09;;;;;;;13.13;3.73;;;12.10;99.90;;;;;;5031940;28;20225;-84
2021/12/31 03:45:36;;;;;;;9.57;3.57;;;12.20;99.90;;;;;;5038508;28;20210;-83
2021/12/31 03:48:05;;;;;;;14.03;4.10;;;12.20;99.90;;;;;;5033379;28;20552;-84
2021/12/31 03:50:31;;;;;;;13.50;4.30;;;12.20;99.90;;;;;;5032607;28;20299;-83
2021/12/31 03:52:58;;;;;;;12.13;3.57;;;12.20;99.90;;;;;;5033446;28;20285;-81
2021/12/31 03:55:25;;;;;;;13.47;4.53;;;12.30;99.90;;;;;;5051709;28;20696;-80
2021/12/31 03:57:52;;;;;;;16.27;4.00;;;12.30;99.90;;;;;;5052064;28;20206;-84
2021/12/31 04:00:20;;;;;;;16.73;4.13;;;12.30;99.90;;;;;;5051329;28;20209;-83
2021/12/31 04:02:47;;;;;;;15.73;4.10;;;12.30;99.90;;;;;;5051200;28;20206;-80
2021/12/31 04:05:15;;;;;;;11.10;2.90;;;12.40;99.90;;;;;;5052193;28;20206;-78
2021/12/31 04:07:43;;;;;;;10.43;3.47;;;12.40;99.90;;;;;;5047859;28;20624;-82
2021/12/31 04:10:10;;;;;;;9.13;3.37;;;12.40;99.90;;;;;;5031534;28;20202;-81
2021/12/31 04:12:36;;;;;;;12.90;3.70;;;12.50;99.90;;;;;;5030863;28;20227;-81
2021/12/31 04:15:04;;;;;;;9.67;3.30;;;12.50;99.90;;;;;;5045664;28;20209;-82
2021/12/31 04:17:30;;;;;;;11.33;3.03;;;12.50;99.90;;;;;;5050514;28;20800;-83
2021/12/31 04:19:58;;;;;;;10.00;2.87;;;12.50;99.90;;;;;;5048968;28;20218;-82
2021/12/31 04:22:29;;;;;;;10.67;2.67;;;12.60;99.90;;;;;;5033620;28;20289;-83
2021/12/31 04:24:56;;;;;;;15.33;3.93;;;12.60;99.90;;;;;;5028132;28;20214;-82
2021/12/31 04:27:23;;;;;;;15.60;3.20;;;12.60;99.90;;;;;;5028099;28;20215;-81
2021/12/31 04:29:53;;;;;;;9.53;2.73;;;12.60;99.90;;;;;;5037887;28;20213;-82
2021/12/31 04:32:22;;;;;;;12.10;3.47;;;12.60;99.90;;;;;;5048243;28;20190;-82
2021/12/31 04:34:49;;;;;;;12.80;3.10;;;12.60;99.90;;;;;;5038872;28;20218;-82
2021/12/31 04:37:16;;;;;;;8.00;2.70;;;12.60;99.90;;;;;;5028846;28;20210;-82
2021/12/31 04:39:44;;;;;;;9.03;2.43;;;12.60;99.90;;;;;;5028543;28;20218;-82
2021/12/31 04:42:11;;;;;;;10.23;3.30;;;12.60;99.90;;;;;;5027510;28;20268;-83
2021/12/31 04:44:38;;;;;;;10.10;3.20;;;12.60;99.90;;;;;;5044851;28;20272;-84
2021/12/31 04:47:05;;;;;;;11.03;3.57;;;12.60;99.90;;;;;;5038686;28;20718;-82
2021/12/31 04:49:32;;;;;;;11.33;3.27;;;12.50;99.90;;;;;;5026965;28;20211;-84
2021/12/31 04:51:59;;;;;;;8.60;3.20;;;12.60;99.90;;;;;;5029441;28;20867;-82
2021/12/31 04:54:26;;;;;;;12.07;3.77;;;12.50;99.90;;;;;;5028097;28;20227;-82
2021/12/31 04:56:56;;;;;;;14.50;3.73;;;12.50;99.90;;;;;;5028562;28;20214;-82
2021/12/31 04:59:23;;;;;;;7.83;2.60;;;12.60;99.90;;;;;;5028616;28;20545;-81
2021/12/31 05:01:50;;;;;;;12.73;3.70;;;12.60;99.90;;;;;;5030121;28;20199;-82
2021/12/31 05:04:17;;;;;;;7.63;2.50;;;12.60;99.90;;;;;;5030088;28;20214;-82
2021/12/31 05:06:43;;;;;;;9.87;3.23;;;12.60;99.90;;;;;;5049149;28;20221;-81
2021/12/31 05:09:10;;;;;;;11.30;3.23;;;12.60;99.90;;;;;;5050888;28;20206;-80
2021/12/31 05:11:38;;;;;;;10.97;2.93;;;12.60;99.90;;;;;;5038173;28;20606;-83
2021/12/31 05:14:06;;;;;;;7.93;2.83;;;12.60;99.90;;;;;;5032616;28;20441;-83
2021/12/31 05:16:35;;;;;;;9.40;2.63;;;12.60;99.90;;;;;;5048758;28;20202;-82
2021/12/31 05:19:02;;;;;;;7.53;2.43;;;12.70;99.90;;;;;;5048994;28;20209;-81
2021/12/31 05:21:29;;;;;;;10.73;2.77;;;12.70;99.90;;;;;;5043180;28;20207;-84
2021/12/31 05:23:56;;;;;;;9.63;2.60;;;12.70;99.90;;;;;;5029486;28;20199;-79
2021/12/31 05:26:23;;;;;;;7.77;3.23;;;12.70;99.90;;;;;;5029020;28;20202;-80
2021/12/31 05:28:50;;;;;;;9.43;2.93;;;12.70;99.90;;;;;;5028094;28;20233;-81
2021/12/31 05:31:18;;;;;;;9.37;2.90;;;12.70;99.90;;;;;;5027906;28;20215;-82
2021/12/31 05:33:45;;;;;;;9.90;2.70;;;12.70;99.90;;;;;;5028110;28;20227;-82
2021/12/31 05:36:12;;;;;;;12.80;3.13;;;12.70;99.90;;;;;;5028637;28;20210;-82
2021/12/31 05:38:39;;;;;;;12.20;3.10;;;12.70;99.90;;;;;;5027404;28;20676;-80
2021/12/31 05:41:07;;;;;;;6.30;2.63;;;12.60;99.90;;;;;;5028673;28;20221;-80
2021/12/31 05:43:34;;;;;;;10.37;3.00;;;12.60;99.90;;;;;;5027952;28;20199;-81
2021/12/31 05:46:00;;;;;;;11.23;3.00;;;12.60;99.90;;;;;;5028307;28;20246;-81
2021/12/31 05:48:29;;;;;;;9.50;3.23;;;12.60;99.90;;;;;;5027739;28;20195;-81
2021/12/31 05:50:56;;;;;;;15.03;3.63;;;12.60;99.90;;;;;;5028682;28;20207;-82
2021/12/31 05:53:23;;;;;;;14.30;3.30;;;12.60;99.90;;;;;;5027498;28;20226;-82
2021/12/31 05:55:50;;;;;;;11.87;3.40;;;12.60;99.90;;;;;;5028400;28;20194;-81
2021/12/31 05:58:18;;;;;;;13.83;3.37;;;12.60;99.90;;;;;;5027508;28;20477;-82
2021/12/31 06:00:45;;;;;;;14.07;3.80;;;12.60;99.90;;;;;;5027326;28;20489;-82
2021/12/31 06:03:11;;;;;;;9.00;3.00;;;12.50;99.90;;;;;;5028327;28;20210;-81
2021/12/31 06:05:39;;;;;;;16.23;3.60;;;12.50;99.90;;;;;;5027540;28;20202;-81
2021/12/31 06:08:06;;;;;;;11.20;3.37;;;12.50;99.90;;;;;;5027797;28;20199;-80
2021/12/31 06:10:33;;;;;;;12.33;3.03;;;12.50;99.90;;;;;;5027036;28;20202;-81
2021/12/31 06:13:01;;;;;;;11.73;3.10;;;12.50;99.90;;;;;;5027250;28;20599;-80
2021/12/31 06:15:29;;;;;;;14.80;3.17;;;12.50;99.90;;;;;;5027454;28;20206;-80
2021/12/31 06:17:56;;;;;;;11.30;2.90;;;12.50;99.90;;;;;;5028398;28;20194;-82
2021/12/31 06:20:24;;;;;;;12.70;3.13;;;12.40;99.90;;;;;;5028437;28;20311;-83
2021/12/31 06:22:52;;;;;;;14.10;3.67;;;12.50;99.90;;;;;;5028435;28;20653;-83
2021/12/31 06:25:19;;;;;;;13.73;3.93;;;12.40;99.90;;;;;;5028334;28;20214;-81
2021/12/31 06:27:46;;;;;;;15.33;3.23;;;12.40;99.90;;;;;;5028039;28;20305;-81
2021/12/31 06:30:13;;;;;;;10.33;2.47;;;12.40;99.90;;;;;;5027864;28;20203;-81
2021/12/31 06:32:40;;;;;;;11.97;2.67;;;12.40;99.90;;;;;;5026977;28;20195;-81
2021/12/31 06:35:08;;;;;;;11.37;3.77;;;12.40;99.90;;;;;;5028058;28;20235;-83
2021/12/31 06:37:34;;;;;;;12.17;3.23;;;12.40;99.90;;;;;;5028232;28;20212;-85
2021/12/31 06:40:06;;;;;;;12.57;2.87;;;12.40;99.90;;;;;;5028307;28;20309;-83
2021/12/31 06:42:35;;;;;;;13.57;2.80;;;12.40;99.90;;;;;;5027701;28;20206;-81
2021/12/31 06:45:02;;;;;;;11.83;3.23;;;12.40;99.90;;;;;;5033913;28;20202;-81
2021/12/31 06:47:29;;;;;;;8.43;2.87;;;12.30;99.90;;;;;;5043690;28;20230;-82
2021/12/31 06:49:56;;;;;;;7.73;3.00;;;12.30;99.90;;;;;;5029012;28;20207;-83
2021/12/31 06:52:23;;;;;;;12.03;2.93;;;12.30;99.90;;;;;;5027880;28;20631;-81
2021/12/31 06:54:49;;;;;;;10.97;3.13;;;12.30;99.90;;;;;;5027696;28;20226;-82
2021/12/31 06:57:18;;;;;;;9.70;2.77;;;12.40;99.90;;;;;;5027818;28;20222;-81
2021/12/31 06:59:45;;;;;;;8.90;2.97;;;12.40;99.90;;;;;;5026576;28;20532;-80
2021/12/31 07:02:12;;;;;;;12.57;3.10;;;12.40;99.90;;;;;;5026121;28;20607;-80
2021/12/31 07:04:39;;;;;;;9.90;2.97;;;12.50;99.90;;;;;;5026227;28;20199;-82
2021/12/31 07:07:05;;;;;;;8.17;2.50;;;12.50;99.90;;;;;;5026064;28;20218;-82
2021/12/31 07:09:32;;;;;;;10.97;3.33;;;12.50;99.90;;;;;;5025737;28;20595;-82
2021/12/31 07:11:59;;;;;;;10.13;3.30;;;12.50;99.90;;;;;;5026661;28;20595;-83
2021/12/31 07:14:27;;;;;;;11.40;3.40;;;12.50;99.90;;;;;;5026160;28;20245;-81
2021/12/31 07:16:54;;;;;;;11.63;3.27;;;12.50;99.90;;;;;;5026393;28;20256;-81
2021/12/31 07:19:21;;;;;;;10.37;3.70;;;12.50;99.90;;;;;;5026121;28;20207;-81
2021/12/31 07:21:48;;;;;;;8.90;2.70;;;12.50;99.90;;;;;;5025731;28;20214;-81
2021/12/31 07:24:14;;;;;;;10.77;3.33;;;12.50;99.90;;;;;;5026164;28;20206;-81
2021/12/31 07:26:41;;;;;;;10.50;2.93;;;12.50;99.90;;;;;;5025718;28;20195;-81
2021/12/31 07:29:08;;;;;;;11.90;3.80;;;12.50;99.90;;;;;;5025993;28;20245;-82
2021/12/31 07:31:36;;;;;;;8.43;2.80;;;12.40;99.90;;;;;;5024689;28;20202;-82
2021/12/31 07:34:03;;;;;;;10.33;2.63;;;12.50;99.90;;;;;;5029371;28;20226;-81
2021/12/31 07:36:30;;;;;;;11.87;4.30;;;12.40;99.90;;;;;;5046195;28;20202;-80
2021/12/31 07:39:02;;;;;;;11.53;3.10;;;12.50;99.90;;;;;;5045983;28;20506;-82
2021/12/31 07:41:28;;;;;;;10.57;3.13;;;12.40;99.90;;;;;;5045758;28;20241;-82
2021/12/31 07:43:55;;;;;;;7.77;2.87;;;12.40;99.90;;;;;;5029195;28;20202;-81
2021/12/31 07:46:22;;;;;;;10.50;3.17;;;12.40;99.90;;;;;;5026666;28;20234;-82
2021/12/31 07:48:51;;;;;;;11.77;3.10;;;12.40;99.90;;;;;;5016375;28;20201;-81
2021/12/31 07:51:19;;;;;;;11.53;2.83;;;12.40;99.90;;;;;;5047780;28;20201;-83
2021/12/31 07:53:46;;;;;;;10.00;2.97;;;12.30;99.90;;;;;;5039730;28;20851;-82
2021/12/31 07:56:14;;;;;;;11.73;3.50;;;12.40;99.90;;;;;;5026671;28;20209;-82
2021/12/31 07:58:40;;;;;;;6.53;2.83;;;12.30;99.90;;;;;;5026684;28;20240;-81
2021/12/31 08:01:07;;;;;;;8.17;3.30;;;12.30;99.90;;;;;;5025526;28;20203;-83
2021/12/31 08:03:35;;;;;;;11.63;3.90;;;12.30;99.90;;;;;;5023913;28;20681;-82
2021/12/31 08:06:03;;;;;;;12.47;3.03;;;12.30;99.90;;;;;;5027493;28;20210;-81
2021/12/31 08:08:30;;;;;;;11.67;3.97;;;12.30;99.90;;;;;;5027659;28;20209;-81
2021/12/31 08:10:57;;;;;;;11.07;3.10;;;12.20;99.90;;;;;;5027197;28;20599;-81
2021/12/31 08:13:24;;;;;;;13.10;3.53;;;12.20;99.90;;;;;;5025253;28;20203;-81
2021/12/31 08:15:51;;;;;;;13.33;4.10;;;12.20;99.90;;;;;;5041347;28;20234;-81
2021/12/31 08:18:18;;;;;;;15.07;3.97;;;12.20;99.90;;;;;;5045419;28;20198;-81
2021/12/31 08:20:45;;;;;;;7.50;2.90;;;12.20;99.90;;;;;;5025467;28;20215;-80
2021/12/31 08:23:13;;;;;;;10.53;2.87;;;12.20;99.90;;;;;;5027048;28;20198;-83
2021/12/31 08:25:41;;;;;;;15.70;3.90;;;12.10;99.90;;;;;;5029716;28;20309;-82
2021/12/31 08:28:08;;;;;;;7.60;3.43;;;12.20;99.90;;;;;;5029852;28;20230;-80
2021/12/31 08:30:35;;;;;;;12.57;3.73;;;12.20;99.90;;;;;;5031054;28;20210;-82
2021/12/31 08:33:02;;;;;;;8.80;3.53;;;12.30;99.90;;;;;;5030784;28;20202;-82
2021/12/31 08:35:29;;;;;;;10.70;3.20;;;12.30;99.90;;;;;;5031460;28;20226;-82
2021/12/31 08:37:56;;;;;;;15.27;3.20;;;12.20;99.90;;;;;;5031066;28;20202;-81
2021/12/31 08:40:24;;;;;;;16.03;4.60;;;12.20;99.90;;;;;;5029139;28;20290;-80
2021/12/31 08:42:51;;;;;;;11.37;3.43;;;12.20;99.90;;;;;;5029700;28;20213;-81
2021/12/31 08:45:18;;;;;;;13.27;3.30;;;12.30;99.90;;;;;;5038208;28;20210;-83
2021/12/31 08:47:45;;;;;;;10.23;3.00;;;12.30;99.90;;;;;;5034136;28;20230;-83
2021/12/31 08:50:12;;;;;;;8.83;3.03;;;12.30;99.90;;;;;;5030572;28;20199;-84
2021/12/31 08:52:39;;;;;;;9.90;3.40;;;12.30;99.90;;;;;;5030708;28;20231;-83
2021/12/31 08:55:09;;;;;;;8.20;3.10;;;12.30;99.90;;;;;;5030366;28;20261;-83
2021/12/31 08:57:37;;;;;;;7.77;3.23;;;12.30;99.90;;;;;;5030165;28;20206;-83
2021/12/31 09:00:05;;;;;;;10.43;3.00;;;12.30;99.90;;;;;;5029889;28;20206;-81
2021/12/31 09:02:32;;;;;;;10.67;3.20;;;12.30;99.90;;;;;;5029331;28;20203;-81
2021/12/31 09:04:59;;;;;;;8.50;2.97;;;12.20;99.90;;;;;;5030038;28;20199;-81
2021/12/31 09:07:26;;;;;;;12.97;3.50;;;12.30;99.90;;;;;;5029625;28;20206;-81
2021/12/31 09:09:53;;;;;;;9.97;3.10;;;12.30;99.90;;;;;;5029063;28;20241;-81
2021/12/31 09:12:20;;;;;;;13.53;3.07;;;12.30;99.90;;;;;;5027927;28;20202;-79
2021/12/31 09:14:48;;;;;;;11.27;4.07;;;12.30;99.90;;;;;;5029064;28;20225;-82
2021/12/31 09:17:15;;;;;;;9.67;3.00;;;12.30;99.90;;;;;;5028032;28;20210;-83
2021/12/31 09:19:42;;;;;;;13.60;3.80;;;12.30;99.90;;;;;;5029687;28;20221;-81
2021/12/31 09:22:09;;;;;;;9.30;3.13;;;12.30;99.90;;;;;;5028048;28;20218;-79
2021/12/31 09:24:36;;;;;;;18.03;4.47;;;12.30;99.90;;;;;;5027009;28;20226;-80
2021/12/31 09:27:03;;;;;;;7.33;3.10;;;12.30;99.90;;;;;;5028086;28;20210;-79
2021/12/31 09:29:30;;;;;;;14.37;3.87;;;12.30;99.90;;;;;;5027105;28;20226;-80
2021/12/31 09:31:58;;;;;;;11.20;3.23;;;12.30;99.90;;;;;;5039300;28;20210;-81
2021/12/31 09:34:24;;;;;;;15.13;4.77;;;12.30;99.90;;;;;;5045949;28;20236;-79
2021/12/31 09:36:52;;;;;;;12.87;3.47;;;12.30;99.90;;;;;;5047054;28;20186;-80
2021/12/31 09:39:19;;;;;;;10.20;3.20;;;12.30;99.90;;;;;;5047789;28;20198;-81
2021/12/31 09:41:46;;;;;;;12.63;3.80;;;12.20;99.90;;;;;;5031388;28;20908;-81
2021/12/31 09:44:14;;;;;;;11.77;3.80;;;12.20;99.90;;;;;;5026560;28;20195;-81
2021/12/31 09:46:41;;;;;;;11.00;3.43;;;12.20;99.90;;;;;;5034622;28;20662;-80
2021/12/31 09:49:09;;;;;;;12.80;3.60;;;12.20;99.90;;;;;;5027286;28;20293;-79
2021/12/31 09:51:41;;;;;;;13.13;4.50;;;12.10;99.90;;;;;;5026620;28;20527;-81
2021/12/31 09:54:09;;;;;;;12.67;3.60;;;12.10;99.90;;;;;;5027531;28;20206;-81
2021/12/31 09:56:40;;;;;;;17.53;4.30;;;12.10;99.90;;;;;;5026583;28;20525;-80
2021/12/31 09:59:08;;;;;;;12.90;3.67;;;12.10;99.90;;;;;;5027064;28;20261;-80
2021/12/31 10:01:44;;;;;;;13.20;3.90;;;12.10;99.90;;;;;;5027034;28;20293;-81
2021/12/31 10:04:12;;;;;;;18.70;3.67;;;12.10;99.90;;;;;;5027628;28;20289;-81
2021/12/31 10:06:39;;;;;;;9.60;3.53;;;12.10;99.90;;;;;;5026079;28;20602;-80
2021/12/31 10:09:05;;;;;;;10.37;3.30;;;12.00;99.90;;;;;;5027501;28;20206;-82
2021/12/31 10:11:32;;;;;;;13.90;3.57;;;12.10;99.90;;;;;;5028579;28;20210;-82
2021/12/31 10:14:01;;;;;;;12.07;2.87;;;12.10;99.90;;;;;;5027826;28;20350;-83
2021/12/31 10:16:30;;;;;;;13.23;4.13;;;12.10;99.90;;;;;;5028740;28;20210;-80
2021/12/31 10:19:09;;;;;;;8.30;2.90;;;12.10;99.90;;;;;;5037076;28;20210;-81
2021/12/31 10:21:41;;;;;;;9.40;3.40;;;12.10;99.90;;;;;;5047367;28;20201;-82
2021/12/31 10:24:36;;;;;;;10.13;3.43;;;12.10;99.90;;;;;;5027853;28;20285;-83
2021/12/31 10:27:17;;;;;;;9.87;3.07;;;12.10;99.90;;;;;;4981357;28;20209;-82
2021/12/31 10:29:52;;;;;;;21.27;13.17;;;12.10;99.90;;;;;;5027432;28;20217;-81
2021/12/31 10:32:19;;;;;;;11.67;4.87;;;12.10;99.90;;;;;;5027135;28;20210;-82
2021/12/31 10:34:46;;;;;;;12.53;3.40;;;12.20;99.90;;;;;;5026775;28;20634;-79
2021/12/31 10:37:18;;;;;;;11.10;3.30;;;12.20;99.90;;;;;;5027440;28;20203;-81
2021/12/31 10:39:45;;;;;;;12.70;3.53;;;12.20;99.90;;;;;;5028731;28;20237;-81
2021/12/31 10:42:15;;;;;;;12.57;3.50;;;12.30;99.90;;;;;;5046355;28;20212;-82
2021/12/31 10:44:48;;;;;;;12.33;3.53;;;12.40;99.90;;;;;;5046443;28;20284;-81
2021/12/31 10:47:17;;;;;;;10.67;3.43;;;12.40;99.90;;;;;;5035171;28;20611;-79
2021/12/31 10:50:07;;;;;;;9.33;3.13;;;12.40;99.90;;;;;;5033292;22;20194;-81
2021/12/31 10:52:40;;;;;;;10.20;3.60;;;12.50;99.90;;;;;;5006892;28;20215;-81
2021/12/31 10:55:17;;;;;;;12.90;3.30;;;12.50;99.90;;;;;;5006234;28;20827;-81
2021/12/31 10:57:45;;;;;;;12.73;3.17;;;12.50;99.90;;;;;;5006063;28;20294;-80
2021/12/31 11:00:14;;;;;;;12.50;3.87;;;12.50;99.90;;;;;;5006032;28;20210;-79
2021/12/31 11:02:42;;;;;;;13.43;3.60;;;12.50;99.90;;;;;;5005766;28;20207;-79
2021/12/31 11:05:11;;;;;;;11.17;3.40;;;12.50;99.90;;;;;;5005197;28;20203;-81
2021/12/31 11:07:41;;;;;;;9.50;3.47;;;12.50;99.90;;;;;;5005161;28;20507;-81
2021/12/31 11:10:10;;;;;;;12.60;4.33;;;12.50;99.90;;;;;;5005667;28;20643;-80
2021/12/31 11:12:37;;;;;;;9.60;4.13;;;12.50;99.90;;;;;;5006023;28;20477;-81
2021/12/31 11:15:05;;;;;;;16.50;4.97;;;12.50;99.90;;;;;;5006209;28;20233;-81
2021/12/31 11:17:32;;;;;;;14.80;4.13;;;12.50;99.90;;;;;;5020873;28;20210;-80
2021/12/31 11:20:00;;;;;;;12.27;4.33;;;12.50;99.90;;;;;;5026447;28;20209;-82
2021/12/31 11:22:29;;;;;;;12.30;4.57;;;12.50;99.90;;;;;;5007941;28;20214;-81
2021/12/31 11:25:19;;;;;;;13.03;4.30;;;12.40;99.90;;;;;;5006721;28;20195;-81
2021/12/31 11:27:48;;;;;;;16.07;4.37;;;12.30;99.90;;;;;;5006468;28;20231;-81
2021/12/31 11:30:32;;;;;;;13.17;4.40;;;12.30;99.90;;;;;;5005971;28;20289;-80
2021/12/31 11:33:06;;;;;;;17.23;4.83;;;12.30;99.90;;;;;;5006012;28;20207;-80
2021/12/31 11:35:43;;;;;;;19.10;5.47;;;12.20;99.90;;;;;;5006618;28;20226;-85
2021/12/31 11:38:15;;;;;;;25.77;6.10;;;12.10;99.90;;;;;;5006890;28;20501;-81
2021/12/31 11:40:50;;;;;;;17.80;5.73;;;12.10;99.90;;;;;;5006618;28;20253;-81
2021/12/31 11:43:35;;;;;;;24.53;7.33;;;12.00;99.90;;;;;;5007804;28;20198;-83
2021/12/31 11:46:33;;;;;;;23.97;7.00;;;12.00;99.90;;;;;;5009578;28;20203;-85
2021/12/31 11:49:02;;;;;;;17.80;4.53;;;11.90;99.90;;;;;;5008922;28;20203;-83
2021/12/31 11:51:34;;;;;;;18.10;5.03;;;11.90;99.90;;;;;;5007922;28;20247;-80
2021/12/31 11:54:20;;;;;;;18.37;5.50;;;11.80;99.90;;;;;;5008041;28;20207;-81
2021/12/31 11:57:02;;;;;;;22.77;6.17;;;11.80;99.90;;;;;;5009130;28;20720;-82
2021/12/31 11:59:38;;;;;;;21.13;5.40;;;11.80;99.90;;;;;;5010994;28;20264;-82
2021/12/31 12:02:13;;;;;;;16.40;5.57;;;11.80;99.90;;;;;;5012661;28;20214;-82
2021/12/31 12:04:41;;;;;;;19.87;5.87;;;11.80;99.90;;;;;;5012097;28;20702;-81
2021/12/31 12:07:10;;;;;;;20.43;5.90;;;11.80;99.90;;;;;;5011648;28;20199;-82
2021/12/31 12:10:09;;;;;;;25.80;6.73;;;11.80;99.90;;;;;;5011351;28;20207;-83
2021/12/31 12:12:40;;;;;;;20.40;6.17;;;11.90;99.90;;;;;;5009817;28;20218;-81
2021/12/31 12:15:29;;;;;;;15.13;5.23;;;11.90;99.90;;;;;;5011149;28;20234;-84
2021/12/31 12:17:56;;;;;;;16.17;5.30;;;11.90;99.90;;;;;;5012342;28;20473;-83
2021/12/31 12:20:39;;;;;;;15.13;5.20;;;12.00;99.90;;;;;;5011377;28;20619;-81
2021/12/31 12:23:20;;;;;;;23.00;5.27;;;12.00;99.90;;;;;;5011934;28;20212;-82
2021/12/31 12:25:48;;;;;;;18.77;5.20;;;12.10;99.90;;;;;;5011341;28;20200;-81
2021/12/31 12:28:19;;;;;;;20.13;4.93;;;12.20;99.90;;;;;;5010470;28;20278;-80
2021/12/31 12:30:52;;;;;;;19.77;5.00;;;12.20;99.90;;;;;;5010544;28;20203;-82
2021/12/31 12:33:24;;;;;;;22.00;5.10;;;12.30;99.90;;;;;;5029123;28;20218;-82
2021/12/31 12:35:53;;;;;;;22.13;6.00;;;12.40;99.90;;;;;;5021540;28;20234;-82
2021/12/31 12:38:23;;;;;;;23.03;5.27;;;12.50;99.90;;;;;;5008897;28;20198;-82
2021/12/31 12:40:52;;;;;;;16.87;5.63;;;12.60;99.90;;;;;;5010220;28;20214;-81
2021/12/31 12:43:22;;;;;;;19.80;4.90;;;12.60;99.90;;;;;;5010111;28;20211;-82
2021/12/31 12:45:50;;;;;;;23.90;5.07;;;12.60;99.90;;;;;;5020419;28;20206;-85
2021/12/31 12:48:18;;;;;;;19.63;5.17;;;12.50;99.90;;;;;;5029538;28;20206;-82